sensor_id;sensor_type;location;lat;lon;timestamp;P1;durP1;ratioP1;P2;durP2;ratioP2
42036;SDS011;30340;52.004;5.908;2022-07-23T00:02:06;2.03;;;1.30;;
42036;SDS011;30340;52.004;5.908;2022-07-23T00:04:32;2.72;;;1.20;;
42036;SDS011;30340;52.004;5.908;2022-07-23T00:06:58;2.08;;;1.30;;
42036;SDS011;30340;52.004;5.908;2022-07-23T00:09:24;2.28;;;1.20;;
42036;SDS011;30340;52.004;5.908;2022-07-23T00:11:49;1.33;;;1.02;;
42036;SDS011;30340;52.004;5.908;2022-07-23T00:14:15;1.25;;;1.13;;
42036;SDS011;30340;52.004;5.908;2022-07-23T00:16:40;1.40;;;1.30;;
42036;SDS011;30340;52.004;5.908;2022-07-23T00:19:06;2.13;;;1.40;;
42036;SDS011;30340;52.004;5.908;2022-07-23T00:21:31;2.03;;;1.38;;
42036;SDS011;30340;52.004;5.908;2022-07-23T00:23:57;3.22;;;1.33;;
42036;SDS011;30340;52.004;5.908;2022-07-23T00:26:23;2.15;;;1.20;;
42036;SDS011;30340;52.004;5.908;2022-07-23T00:28:48;1.42;;;1.08;;
42036;SDS011;30340;52.004;5.908;2022-07-23T00:31:14;1.83;;;1.30;;
42036;SDS011;30340;52.004;5.908;2022-07-23T00:33:40;1.17;;;1.08;;
42036;SDS011;30340;52.004;5.908;2022-07-23T00:36:06;2.22;;;1.50;;
42036;SDS011;30340;52.004;5.908;2022-07-23T00:38:31;2.05;;;1.35;;
42036;SDS011;30340;52.004;5.908;2022-07-23T00:40:57;2.63;;;1.35;;
42036;SDS011;30340;52.004;5.908;2022-07-23T00:43:23;1.60;;;1.30;;
42036;SDS011;30340;52.004;5.908;2022-07-23T00:45:48;3.28;;;1.15;;
42036;SDS011;30340;52.004;5.908;2022-07-23T00:48:14;2.67;;;1.40;;
42036;SDS011;30340;52.004;5.908;2022-07-23T00:50:40;1.90;;;1.40;;
42036;SDS011;30340;52.004;5.908;2022-07-23T00:53:05;1.98;;;1.48;;
42036;SDS011;30340;52.004;5.908;2022-07-23T00:55:31;1.58;;;1.48;;
42036;SDS011;30340;52.004;5.908;2022-07-23T00:57:57;1.70;;;1.50;;
42036;SDS011;30340;52.004;5.908;2022-07-23T01:00:24;2.22;;;1.92;;
42036;SDS011;30340;52.004;5.908;2022-07-23T01:02:49;1.60;;;1.50;;
42036;SDS011;30340;52.004;5.908;2022-07-23T01:05:15;2.72;;;1.60;;
42036;SDS011;30340;52.004;5.908;2022-07-23T01:07:42;2.42;;;1.88;;
42036;SDS011;30340;52.004;5.908;2022-07-23T01:10:08;2.28;;;1.60;;
42036;SDS011;30340;52.004;5.908;2022-07-23T01:12:52;3.08;;;1.60;;
42036;SDS011;30340;52.004;5.908;2022-07-23T01:15:18;2.00;;;1.73;;
42036;SDS011;30340;52.004;5.908;2022-07-23T01:17:44;2.80;;;1.73;;
42036;SDS011;30340;52.004;5.908;2022-07-23T01:20:09;2.67;;;1.73;;
42036;SDS011;30340;52.004;5.908;2022-07-23T01:22:35;3.03;;;1.70;;
42036;SDS011;30340;52.004;5.908;2022-07-23T01:25:01;2.58;;;1.60;;
42036;SDS011;30340;52.004;5.908;2022-07-23T01:27:26;2.15;;;1.55;;
42036;SDS011;30340;52.004;5.908;2022-07-23T01:29:52;1.75;;;1.50;;
42036;SDS011;30340;52.004;5.908;2022-07-23T01:32:19;3.38;;;1.60;;
42036;SDS011;30340;52.004;5.908;2022-07-23T01:34:44;2.58;;;1.80;;
42036;SDS011;30340;52.004;5.908;2022-07-23T01:37:10;2.53;;;1.70;;
42036;SDS011;30340;52.004;5.908;2022-07-23T01:39:35;2.33;;;1.70;;
42036;SDS011;30340;52.004;5.908;2022-07-23T01:42:01;1.83;;;1.60;;
42036;SDS011;30340;52.004;5.908;2022-07-23T01:44:26;2.25;;;1.65;;
42036;SDS011;30340;52.004;5.908;2022-07-23T01:46:52;2.67;;;1.75;;
42036;SDS011;30340;52.004;5.908;2022-07-23T01:49:18;2.40;;;1.80;;
42036;SDS011;30340;52.004;5.908;2022-07-23T01:51:43;2.20;;;1.60;;
42036;SDS011;30340;52.004;5.908;2022-07-23T01:54:24;2.15;;;1.77;;
42036;SDS011;30340;52.004;5.908;2022-07-23T01:56:54;2.25;;;1.80;;
42036;SDS011;30340;52.004;5.908;2022-07-23T01:59:21;2.40;;;1.50;;
42036;SDS011;30340;52.004;5.908;2022-07-23T02:01:47;2.05;;;1.55;;
42036;SDS011;30340;52.004;5.908;2022-07-23T02:04:13;1.92;;;1.65;;
42036;SDS011;30340;52.004;5.908;2022-07-23T02:06:39;1.83;;;1.52;;
42036;SDS011;30340;52.004;5.908;2022-07-23T02:09:04;2.42;;;1.60;;
42036;SDS011;30340;52.004;5.908;2022-07-23T02:11:30;2.80;;;1.70;;
42036;SDS011;30340;52.004;5.908;2022-07-23T02:13:55;2.63;;;2.08;;
42036;SDS011;30340;52.004;5.908;2022-07-23T02:16:21;2.92;;;1.48;;
42036;SDS011;30340;52.004;5.908;2022-07-23T02:18:46;2.55;;;1.90;;
42036;SDS011;30340;52.004;5.908;2022-07-23T02:21:12;2.05;;;1.60;;
42036;SDS011;30340;52.004;5.908;2022-07-23T02:23:37;2.35;;;1.42;;
42036;SDS011;30340;52.004;5.908;2022-07-23T02:26:03;3.13;;;1.50;;
42036;SDS011;30340;52.004;5.908;2022-07-23T02:28:29;2.53;;;1.60;;
42036;SDS011;30340;52.004;5.908;2022-07-23T02:30:54;3.63;;;1.50;;
42036;SDS011;30340;52.004;5.908;2022-07-23T02:33:20;2.60;;;1.70;;
42036;SDS011;30340;52.004;5.908;2022-07-23T02:35:45;3.28;;;1.75;;
42036;SDS011;30340;52.004;5.908;2022-07-23T02:38:11;1.73;;;1.55;;
42036;SDS011;30340;52.004;5.908;2022-07-23T02:40:36;2.22;;;1.60;;
42036;SDS011;30340;52.004;5.908;2022-07-23T02:43:02;3.55;;;1.70;;
42036;SDS011;30340;52.004;5.908;2022-07-23T02:45:27;2.08;;;1.40;;
42036;SDS011;30340;52.004;5.908;2022-07-23T02:47:53;3.20;;;1.90;;
42036;SDS011;30340;52.004;5.908;2022-07-23T02:50:19;3.85;;;1.50;;
42036;SDS011;30340;52.004;5.908;2022-07-23T02:52:44;2.92;;;1.50;;
42036;SDS011;30340;52.004;5.908;2022-07-23T02:55:10;6.75;;;1.70;;
42036;SDS011;30340;52.004;5.908;2022-07-23T02:57:36;3.13;;;1.60;;
42036;SDS011;30340;52.004;5.908;2022-07-23T03:00:02;1.85;;;1.65;;
42036;SDS011;30340;52.004;5.908;2022-07-23T03:02:29;2.40;;;1.45;;
42036;SDS011;30340;52.004;5.908;2022-07-23T03:04:55;2.13;;;1.50;;
42036;SDS011;30340;52.004;5.908;2022-07-23T03:07:20;2.25;;;1.52;;
42036;SDS011;30340;52.004;5.908;2022-07-23T03:09:46;1.55;;;1.45;;
42036;SDS011;30340;52.004;5.908;2022-07-23T03:12:11;1.75;;;1.30;;
42036;SDS011;30340;52.004;5.908;2022-07-23T03:14:37;2.40;;;1.45;;
42036;SDS011;30340;52.004;5.908;2022-07-23T03:17:03;3.08;;;1.50;;
42036;SDS011;30340;52.004;5.908;2022-07-23T03:19:28;3.28;;;1.40;;
42036;SDS011;30340;52.004;5.908;2022-07-23T03:21:54;2.75;;;1.40;;
42036;SDS011;30340;52.004;5.908;2022-07-23T03:24:19;3.20;;;1.30;;
42036;SDS011;30340;52.004;5.908;2022-07-23T03:26:45;1.80;;;1.40;;
42036;SDS011;30340;52.004;5.908;2022-07-23T03:29:10;1.85;;;1.40;;
42036;SDS011;30340;52.004;5.908;2022-07-23T03:31:36;3.50;;;1.50;;
42036;SDS011;30340;52.004;5.908;2022-07-23T03:34:02;1.92;;;1.40;;
42036;SDS011;30340;52.004;5.908;2022-07-23T03:36:27;1.63;;;1.30;;
42036;SDS011;30340;52.004;5.908;2022-07-23T03:38:53;1.50;;;1.40;;
42036;SDS011;30340;52.004;5.908;2022-07-23T03:41:19;2.25;;;1.58;;
42036;SDS011;30340;52.004;5.908;2022-07-23T03:43:45;2.80;;;1.83;;
42036;SDS011;30340;52.004;5.908;2022-07-23T03:46:11;1.92;;;1.50;;
42036;SDS011;30340;52.004;5.908;2022-07-23T03:48:37;2.22;;;1.50;;
42036;SDS011;30340;52.004;5.908;2022-07-23T03:51:03;2.38;;;1.70;;
42036;SDS011;30340;52.004;5.908;2022-07-23T03:53:29;3.40;;;1.80;;
42036;SDS011;30340;52.004;5.908;2022-07-23T03:55:54;1.92;;;1.60;;
42036;SDS011;30340;52.004;5.908;2022-07-23T03:58:20;2.95;;;1.70;;
42036;SDS011;30340;52.004;5.908;2022-07-23T04:00:46;2.67;;;1.50;;
42036;SDS011;30340;52.004;5.908;2022-07-23T04:03:11;2.05;;;1.77;;
42036;SDS011;30340;52.004;5.908;2022-07-23T04:05:37;1.80;;;1.50;;
42036;SDS011;30340;52.004;5.908;2022-07-23T04:08:02;5.68;;;2.10;;
42036;SDS011;30340;52.004;5.908;2022-07-23T04:10:28;3.33;;;1.80;;
42036;SDS011;30340;52.004;5.908;2022-07-23T04:12:54;2.40;;;1.65;;
42036;SDS011;30340;52.004;5.908;2022-07-23T04:15:19;1.95;;;1.50;;
42036;SDS011;30340;52.004;5.908;2022-07-23T04:17:45;2.15;;;1.55;;
42036;SDS011;30340;52.004;5.908;2022-07-23T04:20:11;2.35;;;1.55;;
42036;SDS011;30340;52.004;5.908;2022-07-23T04:22:37;1.63;;;1.50;;
42036;SDS011;30340;52.004;5.908;2022-07-23T04:25:03;3.50;;;1.70;;
42036;SDS011;30340;52.004;5.908;2022-07-23T04:27:29;1.88;;;1.55;;
42036;SDS011;30340;52.004;5.908;2022-07-23T04:29:55;2.55;;;1.50;;
42036;SDS011;30340;52.004;5.908;2022-07-23T04:32:20;2.03;;;1.48;;
42036;SDS011;30340;52.004;5.908;2022-07-23T04:34:46;2.00;;;1.42;;
42036;SDS011;30340;52.004;5.908;2022-07-23T04:37:11;1.73;;;1.42;;
42036;SDS011;30340;52.004;5.908;2022-07-23T04:39:37;2.40;;;1.88;;
42036;SDS011;30340;52.004;5.908;2022-07-23T04:42:02;2.13;;;1.63;;
42036;SDS011;30340;52.004;5.908;2022-07-23T04:44:28;1.92;;;1.65;;
42036;SDS011;30340;52.004;5.908;2022-07-23T04:46:54;1.75;;;1.50;;
42036;SDS011;30340;52.004;5.908;2022-07-23T04:49:19;2.33;;;1.48;;
42036;SDS011;30340;52.004;5.908;2022-07-23T04:51:45;2.55;;;1.70;;
42036;SDS011;30340;52.004;5.908;2022-07-23T04:54:12;1.70;;;1.60;;
42036;SDS011;30340;52.004;5.908;2022-07-23T04:56:37;1.90;;;1.70;;
42036;SDS011;30340;52.004;5.908;2022-07-23T04:59:03;1.58;;;1.48;;
42036;SDS011;30340;52.004;5.908;2022-07-23T05:01:28;1.60;;;1.40;;
42036;SDS011;30340;52.004;5.908;2022-07-23T05:03:54;1.80;;;1.30;;
42036;SDS011;30340;52.004;5.908;2022-07-23T05:06:19;2.13;;;1.40;;
42036;SDS011;30340;52.004;5.908;2022-07-23T05:08:45;2.05;;;1.83;;
42036;SDS011;30340;52.004;5.908;2022-07-23T05:11:11;1.63;;;1.50;;
42036;SDS011;30340;52.004;5.908;2022-07-23T05:13:36;2.78;;;1.40;;
42036;SDS011;30340;52.004;5.908;2022-07-23T05:16:02;2.72;;;1.35;;
42036;SDS011;30340;52.004;5.908;2022-07-23T05:18:27;1.30;;;1.20;;
42036;SDS011;30340;52.004;5.908;2022-07-23T05:20:53;1.70;;;1.30;;
42036;SDS011;30340;52.004;5.908;2022-07-23T05:23:19;1.30;;;1.20;;
42036;SDS011;30340;52.004;5.908;2022-07-23T05:25:44;1.65;;;1.30;;
42036;SDS011;30340;52.004;5.908;2022-07-23T05:28:10;2.42;;;1.23;;
42036;SDS011;30340;52.004;5.908;2022-07-23T05:30:35;1.77;;;1.30;;
42036;SDS011;30340;52.004;5.908;2022-07-23T05:33:01;1.58;;;1.20;;
42036;SDS011;30340;52.004;5.908;2022-07-23T05:35:26;1.30;;;1.20;;
42036;SDS011;30340;52.004;5.908;2022-07-23T05:37:52;1.08;;;0.98;;
42036;SDS011;30340;52.004;5.908;2022-07-23T05:40:17;2.00;;;0.98;;
42036;SDS011;30340;52.004;5.908;2022-07-23T05:42:43;0.90;;;0.70;;
42036;SDS011;30340;52.004;5.908;2022-07-23T05:45:09;1.25;;;1.05;;
42036;SDS011;30340;52.004;5.908;2022-07-23T05:47:47;1.75;;;1.00;;
42036;SDS011;30340;52.004;5.908;2022-07-23T05:50:14;2.92;;;1.23;;
42036;SDS011;30340;52.004;5.908;2022-07-23T05:52:40;3.88;;;1.38;;
42036;SDS011;30340;52.004;5.908;2022-07-23T05:55:06;1.50;;;0.93;;
42036;SDS011;30340;52.004;5.908;2022-07-23T05:57:33;1.17;;;0.82;;
42036;SDS011;30340;52.004;5.908;2022-07-23T05:59:58;1.58;;;1.10;;
42036;SDS011;30340;52.004;5.908;2022-07-23T06:02:24;1.13;;;0.95;;
42036;SDS011;30340;52.004;5.908;2022-07-23T06:04:50;1.05;;;0.85;;
42036;SDS011;30340;52.004;5.908;2022-07-23T06:07:15;1.75;;;1.00;;
42036;SDS011;30340;52.004;5.908;2022-07-23T06:09:41;1.33;;;0.77;;
42036;SDS011;30340;52.004;5.908;2022-07-23T06:12:06;1.10;;;0.85;;
42036;SDS011;30340;52.004;5.908;2022-07-23T06:14:32;1.92;;;0.77;;
42036;SDS011;30340;52.004;5.908;2022-07-23T06:16:58;1.70;;;1.20;;
42036;SDS011;30340;52.004;5.908;2022-07-23T06:19:24;1.90;;;0.80;;
42036;SDS011;30340;52.004;5.908;2022-07-23T06:21:50;1.02;;;0.80;;
42036;SDS011;30340;52.004;5.908;2022-07-23T06:24:15;1.20;;;0.80;;
42036;SDS011;30340;52.004;5.908;2022-07-23T06:26:41;2.80;;;0.80;;
42036;SDS011;30340;52.004;5.908;2022-07-23T06:29:06;3.35;;;1.20;;
42036;SDS011;30340;52.004;5.908;2022-07-23T06:31:32;1.55;;;0.90;;
42036;SDS011;30340;52.004;5.908;2022-07-23T06:33:58;1.10;;;0.77;;
42036;SDS011;30340;52.004;5.908;2022-07-23T06:36:24;1.42;;;0.70;;
42036;SDS011;30340;52.004;5.908;2022-07-23T06:38:52;1.63;;;0.90;;
42036;SDS011;30340;52.004;5.908;2022-07-23T06:41:18;2.30;;;1.00;;
42036;SDS011;30340;52.004;5.908;2022-07-23T06:43:43;1.27;;;1.00;;
42036;SDS011;30340;52.004;5.908;2022-07-23T06:46:09;2.60;;;1.30;;
42036;SDS011;30340;52.004;5.908;2022-07-23T06:48:34;1.05;;;0.80;;
42036;SDS011;30340;52.004;5.908;2022-07-23T06:51:00;1.35;;;0.80;;
42036;SDS011;30340;52.004;5.908;2022-07-23T06:53:27;2.50;;;1.10;;
42036;SDS011;30340;52.004;5.908;2022-07-23T06:55:53;1.65;;;0.90;;
42036;SDS011;30340;52.004;5.908;2022-07-23T06:58:18;2.05;;;0.80;;
42036;SDS011;30340;52.004;5.908;2022-07-23T07:00:45;1.95;;;1.10;;
42036;SDS011;30340;52.004;5.908;2022-07-23T07:03:10;1.52;;;0.80;;
42036;SDS011;30340;52.004;5.908;2022-07-23T07:05:36;1.75;;;1.10;;
42036;SDS011;30340;52.004;5.908;2022-07-23T07:08:02;2.33;;;1.17;;
42036;SDS011;30340;52.004;5.908;2022-07-23T07:10:27;2.15;;;1.08;;
42036;SDS011;30340;52.004;5.908;2022-07-23T07:12:53;1.85;;;1.05;;
42036;SDS011;30340;52.004;5.908;2022-07-23T07:15:18;2.22;;;1.33;;
42036;SDS011;30340;52.004;5.908;2022-07-23T07:17:44;2.30;;;1.30;;
42036;SDS011;30340;52.004;5.908;2022-07-23T07:20:10;2.00;;;1.05;;
42036;SDS011;30340;52.004;5.908;2022-07-23T07:22:36;1.17;;;0.90;;
42036;SDS011;30340;52.004;5.908;2022-07-23T07:25:02;2.30;;;1.10;;
42036;SDS011;30340;52.004;5.908;2022-07-23T07:27:27;3.70;;;1.25;;
42036;SDS011;30340;52.004;5.908;2022-07-23T07:29:53;3.83;;;1.17;;
42036;SDS011;30340;52.004;5.908;2022-07-23T07:32:19;1.77;;;0.98;;
42036;SDS011;30340;52.004;5.908;2022-07-23T07:34:44;2.63;;;1.00;;
42036;SDS011;30340;52.004;5.908;2022-07-23T07:37:10;2.80;;;1.05;;
42036;SDS011;30340;52.004;5.908;2022-07-23T07:39:35;1.85;;;1.10;;
42036;SDS011;30340;52.004;5.908;2022-07-23T07:42:00;0.80;;;0.80;;
42036;SDS011;30340;52.004;5.908;2022-07-23T07:44:26;2.47;;;1.23;;
42036;SDS011;30340;52.004;5.908;2022-07-23T07:46:52;2.35;;;1.00;;
42036;SDS011;30340;52.004;5.908;2022-07-23T07:49:18;2.33;;;1.17;;
42036;SDS011;30340;52.004;5.908;2022-07-23T07:51:44;1.60;;;1.13;;
42036;SDS011;30340;52.004;5.908;2022-07-23T07:54:10;1.98;;;0.98;;
42036;SDS011;30340;52.004;5.908;2022-07-23T07:56:36;1.83;;;1.35;;
42036;SDS011;30340;52.004;5.908;2022-07-23T07:59:02;1.38;;;1.00;;
42036;SDS011;30340;52.004;5.908;2022-07-23T08:01:27;1.67;;;0.90;;
42036;SDS011;30340;52.004;5.908;2022-07-23T08:03:53;1.00;;;0.90;;
42036;SDS011;30340;52.004;5.908;2022-07-23T08:06:18;1.10;;;0.75;;
42036;SDS011;30340;52.004;5.908;2022-07-23T08:08:44;0.90;;;0.73;;
42036;SDS011;30340;52.004;5.908;2022-07-23T08:11:10;1.67;;;0.82;;
42036;SDS011;30340;52.004;5.908;2022-07-23T08:13:35;1.40;;;1.00;;
42036;SDS011;30340;52.004;5.908;2022-07-23T08:16:01;1.30;;;0.82;;
42036;SDS011;30340;52.004;5.908;2022-07-23T08:18:27;1.33;;;1.00;;
42036;SDS011;30340;52.004;5.908;2022-07-23T08:20:53;1.48;;;0.82;;
42036;SDS011;30340;52.004;5.908;2022-07-23T08:23:18;1.63;;;0.90;;
42036;SDS011;30340;52.004;5.908;2022-07-23T08:25:45;1.85;;;0.98;;
42036;SDS011;30340;52.004;5.908;2022-07-23T08:28:12;1.55;;;1.00;;
42036;SDS011;30340;52.004;5.908;2022-07-23T08:30:39;1.00;;;0.90;;
42036;SDS011;30340;52.004;5.908;2022-07-23T08:33:13;2.55;;;0.88;;
42036;SDS011;30340;52.004;5.908;2022-07-23T08:35:42;1.08;;;0.80;;
42036;SDS011;30340;52.004;5.908;2022-07-23T08:38:14;1.17;;;0.90;;
42036;SDS011;30340;52.004;5.908;2022-07-23T08:40:42;1.05;;;0.90;;
42036;SDS011;30340;52.004;5.908;2022-07-23T08:43:11;1.75;;;1.00;;
42036;SDS011;30340;52.004;5.908;2022-07-23T08:45:40;2.10;;;1.10;;
42036;SDS011;30340;52.004;5.908;2022-07-23T08:48:13;1.50;;;1.10;;
42036;SDS011;30340;52.004;5.908;2022-07-23T08:50:43;1.48;;;1.00;;
42036;SDS011;30340;52.004;5.908;2022-07-23T08:53:10;2.28;;;1.20;;
42036;SDS011;30340;52.004;5.908;2022-07-23T08:55:36;2.83;;;1.23;;
42036;SDS011;30340;52.004;5.908;2022-07-23T08:58:02;2.35;;;1.10;;
42036;SDS011;30340;52.004;5.908;2022-07-23T09:00:28;1.23;;;1.10;;
42036;SDS011;30340;52.004;5.908;2022-07-23T09:02:54;1.52;;;1.00;;
42036;SDS011;30340;52.004;5.908;2022-07-23T09:05:19;1.23;;;1.00;;
42036;SDS011;30340;52.004;5.908;2022-07-23T09:10:49;1.30;;;0.90;;
42036;SDS011;30340;52.004;5.908;2022-07-23T09:16:01;2.03;;;1.25;;
42036;SDS011;30340;52.004;5.908;2022-07-23T09:18:36;1.88;;;1.00;;
42036;SDS011;30340;52.004;5.908;2022-07-23T09:21:28;0.90;;;0.90;;
42036;SDS011;30340;52.004;5.908;2022-07-23T09:24:02;2.92;;;1.05;;
42036;SDS011;30340;52.004;5.908;2022-07-23T09:26:42;1.42;;;0.85;;
42036;SDS011;30340;52.004;5.908;2022-07-23T09:29:18;0.95;;;0.80;;
42036;SDS011;30340;52.004;5.908;2022-07-23T09:36:49;1.10;;;0.80;;
42036;SDS011;30340;52.004;5.908;2022-07-23T09:39:26;2.80;;;1.40;;
42036;SDS011;30340;52.004;5.908;2022-07-23T09:41:56;2.58;;;1.00;;
42036;SDS011;30340;52.004;5.908;2022-07-23T09:44:23;2.22;;;1.20;;
42036;SDS011;30340;52.004;5.908;2022-07-23T09:46:49;2.88;;;1.20;;
42036;SDS011;30340;52.004;5.908;2022-07-23T09:49:17;1.30;;;1.05;;
42036;SDS011;30340;52.004;5.908;2022-07-23T09:51:48;1.45;;;1.00;;
42036;SDS011;30340;52.004;5.908;2022-07-23T09:54:23;1.40;;;1.20;;
42036;SDS011;30340;52.004;5.908;2022-07-23T09:56:53;1.10;;;1.00;;
42036;SDS011;30340;52.004;5.908;2022-07-23T09:59:24;1.85;;;1.10;;
42036;SDS011;30340;52.004;5.908;2022-07-23T10:01:52;2.08;;;0.80;;
42036;SDS011;30340;52.004;5.908;2022-07-23T10:04:21;2.35;;;1.20;;
42036;SDS011;30340;52.004;5.908;2022-07-23T10:06:49;1.23;;;0.90;;
42036;SDS011;30340;52.004;5.908;2022-07-23T10:09:24;2.58;;;1.10;;
42036;SDS011;30340;52.004;5.908;2022-07-23T10:12:05;2.08;;;1.30;;
42036;SDS011;30340;52.004;5.908;2022-07-23T10:14:46;1.48;;;1.27;;
42036;SDS011;30340;52.004;5.908;2022-07-23T10:17:11;2.28;;;1.10;;
42036;SDS011;30340;52.004;5.908;2022-07-23T10:19:37;1.75;;;1.00;;
42036;SDS011;30340;52.004;5.908;2022-07-23T10:22:04;1.67;;;1.10;;
42036;SDS011;30340;52.004;5.908;2022-07-23T10:27:26;1.33;;;1.20;;
42036;SDS011;30340;52.004;5.908;2022-07-23T10:30:09;1.83;;;1.30;;
42036;SDS011;30340;52.004;5.908;2022-07-23T10:32:45;1.30;;;1.00;;
42036;SDS011;30340;52.004;5.908;2022-07-23T10:38:21;1.63;;;0.93;;
42036;SDS011;30340;52.004;5.908;2022-07-23T10:40:59;2.13;;;1.30;;
42036;SDS011;30340;52.004;5.908;2022-07-23T10:43:27;3.60;;;1.38;;
42036;SDS011;30340;52.004;5.908;2022-07-23T10:45:53;1.58;;;1.13;;
42036;SDS011;30340;52.004;5.908;2022-07-23T10:48:23;1.10;;;1.00;;
42036;SDS011;30340;52.004;5.908;2022-07-23T10:51:07;1.30;;;1.20;;
42036;SDS011;30340;52.004;5.908;2022-07-23T10:59:20;1.85;;;1.30;;
42036;SDS011;30340;52.004;5.908;2022-07-23T11:01:47;1.63;;;1.20;;
42036;SDS011;30340;52.004;5.908;2022-07-23T11:04:12;1.55;;;1.13;;
42036;SDS011;30340;52.004;5.908;2022-07-23T11:17:22;1.70;;;1.30;;
42036;SDS011;30340;52.004;5.908;2022-07-23T11:20:30;2.13;;;1.30;;
42036;SDS011;30340;52.004;5.908;2022-07-23T11:25:31;1.20;;;1.10;;
42036;SDS011;30340;52.004;5.908;2022-07-23T11:28:09;2.30;;;1.10;;
42036;SDS011;30340;52.004;5.908;2022-07-23T11:30:37;1.65;;;1.25;;
42036;SDS011;30340;52.004;5.908;2022-07-23T11:35:33;1.55;;;1.20;;
42036;SDS011;30340;52.004;5.908;2022-07-23T11:38:14;1.45;;;1.02;;
42036;SDS011;30340;52.004;5.908;2022-07-23T11:40:43;1.73;;;0.93;;
42036;SDS011;30340;52.004;5.908;2022-07-23T11:43:12;1.80;;;1.10;;
42036;SDS011;30340;52.004;5.908;2022-07-23T11:48:16;1.63;;;1.20;;
42036;SDS011;30340;52.004;5.908;2022-07-23T11:53:09;1.65;;;1.10;;
42036;SDS011;30340;52.004;5.908;2022-07-23T11:55:35;1.10;;;1.10;;
42036;SDS011;30340;52.004;5.908;2022-07-23T11:58:00;1.40;;;1.30;;
42036;SDS011;30340;52.004;5.908;2022-07-23T12:00:28;1.88;;;1.30;;
42036;SDS011;30340;52.004;5.908;2022-07-23T12:03:01;2.60;;;1.33;;
42036;SDS011;30340;52.004;5.908;2022-07-23T12:05:29;2.33;;;1.27;;
42036;SDS011;30340;52.004;5.908;2022-07-23T12:07:57;1.45;;;1.30;;
42036;SDS011;30340;52.004;5.908;2022-07-23T12:12:55;1.15;;;1.00;;
42036;SDS011;30340;52.004;5.908;2022-07-23T12:15:27;1.20;;;1.10;;
42036;SDS011;30340;52.004;5.908;2022-07-23T12:17:56;2.72;;;1.10;;
42036;SDS011;30340;52.004;5.908;2022-07-23T12:20:24;1.75;;;1.20;;
42036;SDS011;30340;52.004;5.908;2022-07-23T12:22:59;2.97;;;1.58;;
42036;SDS011;30340;52.004;5.908;2022-07-23T12:25:29;1.90;;;1.30;;
42036;SDS011;30340;52.004;5.908;2022-07-23T12:30:29;1.40;;;1.10;;
42036;SDS011;30340;52.004;5.908;2022-07-23T12:33:02;1.85;;;1.25;;
42036;SDS011;30340;52.004;5.908;2022-07-23T12:35:39;1.35;;;1.23;;
42036;SDS011;30340;52.004;5.908;2022-07-23T12:38:11;2.20;;;1.40;;
42036;SDS011;30340;52.004;5.908;2022-07-23T12:40:45;1.73;;;1.20;;
42036;SDS011;30340;52.004;5.908;2022-07-23T12:45:49;1.88;;;1.33;;
42036;SDS011;30340;52.004;5.908;2022-07-23T12:48:24;2.80;;;1.40;;
42036;SDS011;30340;52.004;5.908;2022-07-23T12:53:24;2.10;;;1.30;;
42036;SDS011;30340;52.004;5.908;2022-07-23T12:56:05;3.13;;;1.77;;
42036;SDS011;30340;52.004;5.908;2022-07-23T13:06:24;2.20;;;1.50;;
42036;SDS011;30340;52.004;5.908;2022-07-23T13:08:50;3.05;;;1.40;;
42036;SDS011;30340;52.004;5.908;2022-07-23T13:11:16;2.47;;;1.48;;
42036;SDS011;30340;52.004;5.908;2022-07-23T13:13:41;1.33;;;1.05;;
42036;SDS011;30340;52.004;5.908;2022-07-23T13:16:07;2.70;;;1.40;;
42036;SDS011;30340;52.004;5.908;2022-07-23T13:18:33;1.20;;;1.10;;
42036;SDS011;30340;52.004;5.908;2022-07-23T13:20:59;1.58;;;1.20;;
42036;SDS011;30340;52.004;5.908;2022-07-23T13:23:25;1.20;;;1.10;;
42036;SDS011;30340;52.004;5.908;2022-07-23T13:25:51;1.35;;;1.08;;
42036;SDS011;30340;52.004;5.908;2022-07-23T13:28:18;1.27;;;1.15;;
42036;SDS011;30340;52.004;5.908;2022-07-23T13:30:45;2.70;;;1.20;;
42036;SDS011;30340;52.004;5.908;2022-07-23T13:33:12;1.90;;;1.30;;
42036;SDS011;30340;52.004;5.908;2022-07-23T13:35:38;1.30;;;1.20;;
42036;SDS011;30340;52.004;5.908;2022-07-23T13:38:04;1.50;;;1.00;;
42036;SDS011;30340;52.004;5.908;2022-07-23T13:40:32;1.42;;;1.10;;
42036;SDS011;30340;52.004;5.908;2022-07-23T13:42:59;1.85;;;1.00;;
42036;SDS011;30340;52.004;5.908;2022-07-23T13:45:26;1.30;;;1.20;;
42036;SDS011;30340;52.004;5.908;2022-07-23T13:47:51;2.25;;;1.20;;
42036;SDS011;30340;52.004;5.908;2022-07-23T13:50:17;1.67;;;1.17;;
42036;SDS011;30340;52.004;5.908;2022-07-23T13:52:43;1.20;;;1.08;;
42036;SDS011;30340;52.004;5.908;2022-07-23T13:55:08;2.13;;;1.50;;
42036;SDS011;30340;52.004;5.908;2022-07-23T13:57:34;6.22;;;3.97;;
42036;SDS011;30340;52.004;5.908;2022-07-23T13:59:59;3.63;;;2.80;;
42036;SDS011;30340;52.004;5.908;2022-07-23T14:02:25;3.58;;;2.10;;
42036;SDS011;30340;52.004;5.908;2022-07-23T14:04:51;2.75;;;1.50;;
42036;SDS011;30340;52.004;5.908;2022-07-23T14:07:17;1.63;;;1.40;;
42036;SDS011;30340;52.004;5.908;2022-07-23T14:09:44;1.25;;;1.10;;
42036;SDS011;30340;52.004;5.908;2022-07-23T14:12:09;1.58;;;1.30;;
42036;SDS011;30340;52.004;5.908;2022-07-23T14:14:35;2.28;;;1.48;;
42036;SDS011;30340;52.004;5.908;2022-07-23T14:17:01;1.27;;;1.17;;
42036;SDS011;30340;52.004;5.908;2022-07-23T14:19:27;1.95;;;1.30;;
42036;SDS011;30340;52.004;5.908;2022-07-23T14:21:52;1.40;;;1.23;;
42036;SDS011;30340;52.004;5.908;2022-07-23T14:24:18;1.50;;;1.27;;
42036;SDS011;30340;52.004;5.908;2022-07-23T14:26:44;1.67;;;1.33;;
42036;SDS011;30340;52.004;5.908;2022-07-23T14:29:09;1.55;;;1.45;;
42036;SDS011;30340;52.004;5.908;2022-07-23T14:31:35;1.73;;;1.50;;
42036;SDS011;30340;52.004;5.908;2022-07-23T14:34:00;1.95;;;1.40;;
42036;SDS011;30340;52.004;5.908;2022-07-23T14:36:26;1.58;;;1.20;;
42036;SDS011;30340;52.004;5.908;2022-07-23T14:38:52;1.48;;;1.25;;
42036;SDS011;30340;52.004;5.908;2022-07-23T14:41:18;1.50;;;1.20;;
42036;SDS011;30340;52.004;5.908;2022-07-23T14:43:43;11.13;;;1.63;;
42036;SDS011;30340;52.004;5.908;2022-07-23T14:46:09;1.67;;;1.58;;
42036;SDS011;30340;52.004;5.908;2022-07-23T14:48:36;2.15;;;1.60;;
42036;SDS011;30340;52.004;5.908;2022-07-23T14:51:02;2.08;;;1.52;;
42036;SDS011;30340;52.004;5.908;2022-07-23T14:53:28;2.00;;;1.42;;
42036;SDS011;30340;52.004;5.908;2022-07-23T14:55:54;2.13;;;1.40;;
42036;SDS011;30340;52.004;5.908;2022-07-23T14:58:21;2.30;;;1.80;;
42036;SDS011;30340;52.004;5.908;2022-07-23T15:00:47;2.05;;;1.85;;
42036;SDS011;30340;52.004;5.908;2022-07-23T15:03:13;4.00;;;1.60;;
42036;SDS011;30340;52.004;5.908;2022-07-23T15:05:38;2.83;;;1.83;;
42036;SDS011;30340;52.004;5.908;2022-07-23T15:08:04;2.65;;;1.30;;
42036;SDS011;30340;52.004;5.908;2022-07-23T15:10:29;2.42;;;1.58;;
42036;SDS011;30340;52.004;5.908;2022-07-23T15:12:55;1.40;;;1.20;;
42036;SDS011;30340;52.004;5.908;2022-07-23T15:15:21;2.05;;;1.42;;
42036;SDS011;30340;52.004;5.908;2022-07-23T15:17:46;1.42;;;0.93;;
42036;SDS011;30340;52.004;5.908;2022-07-23T15:20:12;1.60;;;1.23;;
42036;SDS011;30340;52.004;5.908;2022-07-23T15:22:38;1.55;;;1.23;;
42036;SDS011;30340;52.004;5.908;2022-07-23T15:25:04;1.30;;;1.20;;
42036;SDS011;30340;52.004;5.908;2022-07-23T15:27:30;1.48;;;1.23;;
42036;SDS011;30340;52.004;5.908;2022-07-23T15:29:55;2.72;;;1.35;;
42036;SDS011;30340;52.004;5.908;2022-07-23T15:32:21;1.95;;;1.55;;
42036;SDS011;30340;52.004;5.908;2022-07-23T15:34:49;1.48;;;1.35;;
42036;SDS011;30340;52.004;5.908;2022-07-23T15:37:15;1.92;;;1.60;;
42036;SDS011;30340;52.004;5.908;2022-07-23T15:39:41;1.60;;;1.30;;
42036;SDS011;30340;52.004;5.908;2022-07-23T15:42:06;2.08;;;1.45;;
42036;SDS011;30340;52.004;5.908;2022-07-23T15:44:32;1.85;;;1.30;;
42036;SDS011;30340;52.004;5.908;2022-07-23T15:46:57;1.90;;;1.35;;
42036;SDS011;30340;52.004;5.908;2022-07-23T15:49:23;1.73;;;1.35;;